Time;durP1;ratioP1;P1;durP2;ratioP2;P2;SDS_P1;SDS_P2;PMS_P1;PMS_P2;Temp;Humidity;BMP_temperature;BMP_pressure;BME280_temperature;BME280_humidity;BME280_pressure;Samples;Min_cycle;Max_cycle;Signal;HPM_P1;HPM_P2
2023/03/26 00:01:07;;;;;;;6.70;2.57;;;11.60;99.90;;;;;;5027505;28;20474;-67
2023/03/26 00:03:34;;;;;;;4.83;2.03;;;11.60;99.90;;;;;;5028710;28;20438;-66
2023/03/26 00:06:02;;;;;;;3.40;2.10;;;11.70;99.90;;;;;;5027578;28;20434;-66
2023/03/26 00:08:27;;;;;;;4.57;2.00;;;11.70;99.90;;;;;;5027700;28;20449;-67
2023/03/26 00:10:53;;;;;;;5.17;2.10;;;11.70;99.90;;;;;;5025711;28;20923;-66
2023/03/26 00:13:18;;;;;;;4.00;2.20;;;11.70;99.90;;;;;;5027400;28;20185;-66
2023/03/26 00:15:44;;;;;;;5.37;2.33;;;11.70;99.90;;;;;;5028549;28;20898;-66
2023/03/26 00:18:09;;;;;;;6.17;2.93;;;11.70;99.90;;;;;;5021797;28;21059;-65
2023/03/26 00:20:37;;;;;;;4.30;1.90;;;11.70;99.90;;;;;;5025679;28;20960;-66
2023/03/26 00:23:02;;;;;;;6.23;2.50;;;11.70;99.90;;;;;;5021888;28;20673;-66
2023/03/26 00:25:28;;;;;;;5.80;2.73;;;11.80;99.90;;;;;;5029159;28;20522;-66
2023/03/26 00:27:54;;;;;;;7.43;2.43;;;11.70;99.90;;;;;;5028637;28;20204;-66
2023/03/26 00:30:20;;;;;;;7.60;2.47;;;11.60;99.90;;;;;;5030381;28;20572;-66
2023/03/26 00:32:45;;;;;;;4.00;2.30;;;11.60;99.90;;;;;;5030064;28;20202;-67
2023/03/26 00:35:12;;;;;;;10.17;2.93;;;11.60;99.90;;;;;;5029146;28;20180;-66
2023/03/26 00:37:41;;;;;;;5.57;2.73;;;11.70;99.90;;;;;;5031874;28;20563;-66
2023/03/26 00:40:09;;;;;;;6.70;2.87;;;11.70;99.90;;;;;;5022843;28;20495;-66
2023/03/26 00:42:36;;;;;;;7.03;2.80;;;11.70;99.90;;;;;;5027229;28;20512;-66
2023/03/26 00:45:03;;;;;;;6.90;2.67;;;11.70;99.90;;;;;;5026820;28;20978;-66
2023/03/26 00:47:29;;;;;;;5.27;2.23;;;11.70;99.90;;;;;;5032971;28;20454;-66
2023/03/26 00:49:56;;;;;;;4.60;2.30;;;11.60;99.90;;;;;;5023510;28;20471;-66
2023/03/26 00:52:22;;;;;;;6.03;2.70;;;11.70;99.90;;;;;;5031083;28;20453;-66
2023/03/26 00:54:50;;;;;;;10.07;2.70;;;11.70;99.90;;;;;;5033246;28;20443;-67
2023/03/26 00:57:19;;;;;;;7.20;2.80;;;11.70;99.90;;;;;;5031785;28;21055;-67
2023/03/26 00:59:45;;;;;;;3.90;2.17;;;11.80;99.90;;;;;;5028356;28;20434;-66
2023/03/26 01:02:17;;;;;;;3.90;2.00;;;11.70;99.90;;;;;;5025672;28;20543;-67
2023/03/26 01:04:54;;;;;;;7.83;2.40;;;11.70;99.90;;;;;;5033736;28;20191;-66
2023/03/26 01:07:27;;;;;;;6.97;2.47;;;11.70;99.90;;;;;;5026905;28;20623;-66
2023/03/26 01:09:56;;;;;;;3.97;2.77;;;11.80;99.90;;;;;;5030186;28;21019;-67
2023/03/26 01:12:24;;;;;;;3.80;2.37;;;11.80;99.90;;;;;;5025420;28;20473;-66
2023/03/26 01:14:53;;;;;;;4.50;2.60;;;11.70;99.90;;;;;;5043394;28;20469;-67
2023/03/26 01:17:21;;;;;;;8.27;2.87;;;11.90;99.90;;;;;;5028358;28;20450;-67
2023/03/26 01:19:53;;;;;;;5.53;2.73;;;11.90;99.90;;;;;;5035143;28;20485;-67
2023/03/26 01:22:26;;;;;;;5.57;2.43;;;11.80;99.90;;;;;;5025807;28;21018;-66
2023/03/26 01:24:52;;;;;;;12.20;2.57;;;11.80;99.90;;;;;;5026069;28;20446;-67
2023/03/26 01:27:23;;;;;;;8.63;2.90;;;11.80;99.90;;;;;;5026621;28;20458;-67
2023/03/26 01:30:11;;;;;;;10.83;2.63;;;11.90;99.90;;;;;;5029232;28;20471;-67
2023/03/26 01:32:46;;;;;;;3.77;2.30;;;12.00;99.90;;;;;;5025148;28;20438;-66
2023/03/26 01:35:18;;;;;;;7.30;2.40;;;11.90;99.90;;;;;;5026997;28;20524;-65
2023/03/26 01:38:09;;;;;;;5.83;2.97;;;11.90;99.90;;;;;;5033378;28;20488;-66
2023/03/26 01:40:41;;;;;;;4.20;2.57;;;12.00;99.90;;;;;;5029862;28;20445;-66
2023/03/26 01:43:44;;;;;;;7.50;2.70;;;11.90;99.90;;;;;;5036834;28;20433;-66
2023/03/26 01:46:12;;;;;;;5.00;2.50;;;11.90;99.90;;;;;;5023461;28;20474;-67
2023/03/26 01:48:40;;;;;;;5.80;2.57;;;11.90;99.90;;;;;;5034026;28;20495;-66
2023/03/26 01:51:07;;;;;;;5.70;3.00;;;11.80;99.90;;;;;;5031445;28;20445;-66
2023/03/26 01:53:42;;;;;;;5.37;2.57;;;11.80;99.90;;;;;;5034213;28;20510;-66
2023/03/26 01:56:20;;;;;;;5.07;2.33;;;11.80;99.90;;;;;;5029422;28;20437;-66
2023/03/26 01:59:18;;;;;;;11.93;2.80;;;11.80;99.90;;;;;;5035344;28;20453;-66
2023/03/26 02:01:59;;;;;;;6.00;2.40;;;11.80;99.90;;;;;;5029738;28;20451;-66
2023/03/26 02:04:42;;;;;;;9.23;2.40;;;11.90;99.90;;;;;;5036079;28;20513;-66
2023/03/26 02:07:20;;;;;;;6.50;2.90;;;11.90;99.90;;;;;;5026790;28;20599;-66
2023/03/26 02:09:52;;;;;;;7.70;2.80;;;11.90;99.90;;;;;;5030893;28;21155;-66
2023/03/26 02:12:21;;;;;;;5.07;2.63;;;11.90;99.90;;;;;;5028734;28;20972;-66
2023/03/26 02:14:46;;;;;;;5.00;2.43;;;11.70;99.90;;;;;;5029124;28;22078;-66
2023/03/26 02:17:12;;;;;;;3.97;2.03;;;11.70;99.90;;;;;;5027796;28;20461;-66
2023/03/26 02:19:43;;;;;;;7.40;2.40;;;11.70;99.90;;;;;;5026564;28;20695;-66
2023/03/26 02:22:14;;;;;;;8.80;2.90;;;11.80;99.90;;;;;;5029373;28;20249;-66
2023/03/26 02:24:40;;;;;;;5.63;2.73;;;11.80;99.90;;;;;;5024226;28;20438;-67
2023/03/26 02:27:11;;;;;;;3.43;2.30;;;11.80;99.90;;;;;;5028889;28;20457;-66
2023/03/26 02:29:38;;;;;;;9.00;2.37;;;11.70;99.90;;;;;;5027791;28;20455;-66
2023/03/26 02:32:05;;;;;;;7.27;2.50;;;11.80;99.90;;;;;;5035002;28;20422;-66
2023/03/26 02:34:31;;;;;;;5.67;3.00;;;11.80;99.90;;;;;;5029899;28;20427;-66
2023/03/26 02:36:57;;;;;;;7.50;3.10;;;11.80;99.90;;;;;;5033552;28;20450;-65
2023/03/26 02:39:23;;;;;;;5.13;2.73;;;11.70;99.90;;;;;;5034583;28;20439;-65
2023/03/26 02:41:49;;;;;;;6.90;2.67;;;11.70;99.90;;;;;;5035548;28;20184;-65
2023/03/26 02:44:15;;;;;;;4.27;2.50;;;11.70;99.90;;;;;;5032783;28;20444;-66
2023/03/26 02:46:40;;;;;;;6.27;2.43;;;11.70;99.90;;;;;;5029586;28;20215;-65
2023/03/26 02:49:07;;;;;;;9.70;2.70;;;11.70;99.90;;;;;;5025615;28;20211;-66
2023/03/26 02:51:33;;;;;;;14.70;3.53;;;11.60;99.90;;;;;;5030027;28;20183;-67
2023/03/26 02:54:00;;;;;;;7.97;2.73;;;11.60;99.90;;;;;;5027618;28;20526;-67
2023/03/26 02:56:26;;;;;;;8.40;2.60;;;11.70;99.90;;;;;;5029134;28;20450;-67
2023/03/26 02:58:51;;;;;;;5.57;2.27;;;11.70;99.90;;;;;;5031071;28;20434;-66
2023/03/26 03:01:17;;;;;;;5.80;2.40;;;11.60;99.90;;;;;;5025319;28;20825;-68
2023/03/26 03:03:43;;;;;;;7.83;2.43;;;11.50;99.90;;;;;;5029767;28;20188;-67
2023/03/26 03:06:08;;;;;;;7.93;3.30;;;11.50;99.90;;;;;;5024930;28;20187;-67
2023/03/26 03:08:34;;;;;;;6.10;2.37;;;11.50;99.90;;;;;;5028098;28;20176;-67
2023/03/26 03:11:13;;;;;;;5.80;3.33;;;11.50;99.90;;;;;;5021954;28;20234;-66
2023/03/26 03:13:39;;;;;;;5.17;2.87;;;11.60;99.90;;;;;;5025509;28;20215;-65
2023/03/26 03:16:05;;;;;;;5.17;2.70;;;11.70;99.90;;;;;;5023840;28;20435;-65
2023/03/26 03:18:31;;;;;;;8.50;2.47;;;11.70;99.90;;;;;;5027350;28;20180;-66
2023/03/26 03:20:56;;;;;;;4.80;2.53;;;11.70;99.90;;;;;;5030453;28;20460;-66
2023/03/26 03:23:22;;;;;;;6.57;2.47;;;11.60;99.90;;;;;;5027711;28;20637;-66
2023/03/26 03:25:49;;;;;;;8.07;2.60;;;11.60;99.90;;;;;;5031179;28;20198;-66
2023/03/26 03:28:17;;;;;;;7.50;2.37;;;11.60;99.90;;;;;;5029241;28;20633;-66
2023/03/26 03:30:43;;;;;;;5.67;2.57;;;11.60;99.90;;;;;;5028094;28;20466;-66
2023/03/26 03:33:09;;;;;;;6.00;2.83;;;11.70;99.90;;;;;;5031050;28;20739;-66
2023/03/26 03:35:36;;;;;;;6.40;2.80;;;11.70;99.90;;;;;;5033535;28;20431;-66
2023/03/26 03:38:02;;;;;;;5.03;2.33;;;11.70;99.90;;;;;;5030399;28;20433;-66
2023/03/26 03:40:27;;;;;;;4.67;2.00;;;11.70;99.90;;;;;;5027384;28;20439;-65
2023/03/26 03:42:53;;;;;;;8.50;2.30;;;11.70;99.90;;;;;;5034793;28;20782;-66
2023/03/26 03:45:19;;;;;;;5.53;2.30;;;11.70;99.90;;;;;;5024422;28;20212;-65
2023/03/26 03:47:44;;;;;;;6.77;2.90;;;11.70;99.90;;;;;;5031708;28;20548;-65
2023/03/26 03:50:10;;;;;;;7.70;2.77;;;11.80;99.90;;;;;;5029699;28;21279;-66
2023/03/26 03:52:36;;;;;;;8.43;2.37;;;11.80;99.90;;;;;;5027748;28;20191;-65
2023/03/26 03:55:02;;;;;;;9.80;2.43;;;11.80;99.90;;;;;;5032578;28;20945;-65
2023/03/26 03:57:30;;;;;;;7.77;3.47;;;11.80;99.90;;;;;;5028043;28;20215;-65
2023/03/26 03:59:57;;;;;;;6.30;2.67;;;11.80;99.90;;;;;;5028624;28;20461;-66
2023/03/26 04:02:28;;;;;;;4.03;2.50;;;11.80;99.90;;;;;;5025463;28;20823;-66
2023/03/26 04:04:56;;;;;;;4.63;2.10;;;11.90;99.90;;;;;;5024499;28;20552;-67
2023/03/26 04:07:26;;;;;;;4.73;2.37;;;11.90;99.90;;;;;;5027017;28;20815;-67
2023/03/26 04:09:51;;;;;;;7.97;2.70;;;11.90;99.90;;;;;;5026304;28;21121;-66
2023/03/26 04:12:17;;;;;;;7.00;2.90;;;11.90;99.90;;;;;;5030762;28;20449;-67
2023/03/26 04:14:42;;;;;;;7.23;2.60;;;11.90;99.90;;;;;;5030376;28;20177;-67
2023/03/26 04:17:08;;;;;;;7.67;2.80;;;11.90;99.90;;;;;;5029513;28;20223;-66
2023/03/26 04:19:34;;;;;;;9.40;2.80;;;11.90;99.90;;;;;;5029785;28;20214;-67
2023/03/26 04:22:01;;;;;;;5.23;2.20;;;11.90;99.90;;;;;;5029660;28;20828;-67
2023/03/26 04:24:37;;;;;;;8.17;2.80;;;11.90;99.90;;;;;;5027803;28;20184;-67
2023/03/26 04:27:05;;;;;;;11.03;2.93;;;11.90;99.90;;;;;;5025343;28;20454;-66
2023/03/26 04:29:37;;;;;;;6.83;2.60;;;11.90;99.90;;;;;;5025748;28;20902;-66
2023/03/26 04:32:05;;;;;;;6.03;3.00;;;11.90;99.90;;;;;;5027977;28;20487;-65
2023/03/26 04:34:32;;;;;;;8.90;3.43;;;11.90;99.90;;;;;;5028960;28;20500;-65
2023/03/26 04:37:02;;;;;;;11.27;2.90;;;11.90;99.90;;;;;;5035658;28;20879;-65
2023/03/26 04:39:28;;;;;;;7.90;2.90;;;11.80;99.90;;;;;;5027849;28;20434;-65
2023/03/26 04:41:54;;;;;;;8.53;2.63;;;11.90;99.90;;;;;;5025892;28;20425;-66
2023/03/26 04:44:21;;;;;;;8.67;4.70;;;11.90;99.90;;;;;;5030873;28;20184;-65
2023/03/26 04:46:47;;;;;;;7.03;3.20;;;11.90;99.90;;;;;;5034339;28;20519;-66
2023/03/26 04:49:13;;;;;;;6.30;2.60;;;11.90;99.90;;;;;;5029092;28;20466;-65
2023/03/26 04:51:45;;;;;;;5.37;2.23;;;11.90;99.90;;;;;;5033330;28;20766;-65
2023/03/26 04:54:13;;;;;;;7.83;2.43;;;11.90;99.90;;;;;;5027347;28;20239;-65
2023/03/26 04:56:42;;;;;;;7.17;2.60;;;11.90;99.90;;;;;;5030035;28;20462;-66
2023/03/26 04:59:12;;;;;;;9.20;2.93;;;11.90;99.90;;;;;;5023241;28;20465;-66
2023/03/26 05:01:39;;;;;;;6.90;2.97;;;11.90;99.90;;;;;;5021354;28;20550;-65
2023/03/26 05:04:04;;;;;;;15.77;3.30;;;11.90;99.90;;;;;;5031637;28;20441;-67
2023/03/26 05:06:33;;;;;;;9.30;2.90;;;11.90;99.90;;;;;;5029953;28;21054;-65
2023/03/26 05:09:02;;;;;;;6.87;2.70;;;11.90;99.90;;;;;;5030280;28;20232;-66
2023/03/26 05:11:27;;;;;;;6.80;2.87;;;11.90;99.90;;;;;;5035126;28;20430;-66
2023/03/26 05:13:53;;;;;;;4.50;2.67;;;11.90;99.90;;;;;;5024893;28;20435;-65
2023/03/26 05:16:18;;;;;;;7.10;2.70;;;12.00;99.90;;;;;;5027695;28;20196;-65
2023/03/26 05:18:45;;;;;;;12.07;4.33;;;12.00;99.90;;;;;;5034283;28;20188;-65
2023/03/26 05:21:11;;;;;;;7.47;2.60;;;12.00;99.90;;;;;;5036588;28;20949;-65
2023/03/26 05:23:36;;;;;;;8.60;2.70;;;12.00;99.90;;;;;;5036510;28;20601;-65
2023/03/26 05:26:02;;;;;;;6.23;2.50;;;12.00;99.90;;;;;;5032973;28;20216;-66
2023/03/26 05:28:28;;;;;;;5.50;2.73;;;12.00;99.90;;;;;;5031431;28;20177;-65
2023/03/26 05:30:54;;;;;;;8.87;3.07;;;12.00;99.90;;;;;;5031540;28;20208;-65
2023/03/26 05:33:20;;;;;;;11.13;3.03;;;12.00;99.90;;;;;;5032448;28;20180;-65
2023/03/26 05:35:48;;;;;;;9.30;2.90;;;12.00;99.90;;;;;;5029893;28;21012;-65
2023/03/26 05:38:14;;;;;;;11.40;3.37;;;12.00;99.90;;;;;;5035588;28;20530;-65
2023/03/26 05:40:40;;;;;;;9.77;3.20;;;12.00;99.90;;;;;;5029553;28;20788;-65
2023/03/26 05:43:05;;;;;;;4.80;2.70;;;12.10;99.90;;;;;;5034930;28;20437;-65
2023/03/26 05:45:31;;;;;;;6.17;3.30;;;12.10;99.90;;;;;;5026717;28;20264;-65
2023/03/26 05:47:56;;;;;;;7.90;2.93;;;12.10;99.90;;;;;;5032403;28;20678;-65
2023/03/26 05:50:23;;;;;;;5.23;2.77;;;12.10;99.90;;;;;;5030728;28;20230;-65
2023/03/26 05:52:49;;;;;;;5.90;2.70;;;12.10;99.90;;;;;;5036675;28;20189;-65
2023/03/26 05:55:14;;;;;;;10.10;3.03;;;12.20;99.90;;;;;;5033344;28;21079;-65
2023/03/26 05:57:41;;;;;;;7.43;3.10;;;12.10;99.90;;;;;;5028810;28;20208;-65
2023/03/26 06:00:10;;;;;;;11.73;3.50;;;12.10;99.90;;;;;;5035272;28;20180;-65
2023/03/26 06:02:36;;;;;;;7.33;3.50;;;12.20;99.90;;;;;;5030731;28;20443;-66
2023/03/26 06:05:03;;;;;;;4.57;2.50;;;12.20;99.90;;;;;;5030138;28;20461;-65
2023/03/26 06:07:30;;;;;;;10.90;3.37;;;12.20;99.90;;;;;;5031864;28;20732;-65
2023/03/26 06:09:55;;;;;;;7.60;2.60;;;12.20;99.90;;;;;;5036589;28;20458;-66
2023/03/26 06:12:21;;;;;;;8.90;3.40;;;12.20;99.90;;;;;;5033704;28;21299;-65
2023/03/26 06:14:47;;;;;;;6.53;2.97;;;12.20;99.90;;;;;;5027931;28;20738;-64
2023/03/26 06:17:12;;;;;;;8.30;2.53;;;12.20;99.90;;;;;;5031628;28;20200;-65
2023/03/26 06:19:38;;;;;;;8.23;2.90;;;12.30;99.90;;;;;;5032160;28;20398;-65
2023/03/26 06:22:04;;;;;;;7.10;3.60;;;12.30;99.90;;;;;;5030210;28;20211;-64
2023/03/26 06:24:30;;;;;;;5.57;3.23;;;12.30;99.90;;;;;;5027099;28;20586;-64
2023/03/26 06:26:56;;;;;;;8.80;4.53;;;12.30;99.90;;;;;;5032050;28;20445;-64
2023/03/26 06:29:21;;;;;;;4.90;2.40;;;12.30;99.90;;;;;;5028943;28;20482;-64
2023/03/26 06:31:47;;;;;;;8.20;2.73;;;12.40;99.90;;;;;;5033511;28;20182;-65
2023/03/26 06:34:12;;;;;;;7.30;2.93;;;12.40;99.90;;;;;;5029307;28;20192;-65
2023/03/26 06:36:38;;;;;;;8.60;2.57;;;12.30;99.90;;;;;;5032062;28;20204;-65
2023/03/26 06:39:04;;;;;;;6.77;2.80;;;12.30;99.90;;;;;;5029798;28;20329;-66
2023/03/26 06:41:33;;;;;;;6.80;2.77;;;12.30;99.90;;;;;;5035089;28;20172;-65
2023/03/26 06:43:58;;;;;;;10.17;3.00;;;12.30;99.90;;;;;;5032331;28;20446;-65
2023/03/26 06:46:24;;;;;;;5.83;3.47;;;12.30;99.90;;;;;;5033615;28;20839;-66
2023/03/26 06:48:50;;;;;;;9.93;2.70;;;12.40;99.90;;;;;;5026492;28;20199;-65
2023/03/26 06:51:16;;;;;;;6.10;2.80;;;12.40;99.90;;;;;;5025005;28;20448;-65
2023/03/26 06:53:42;;;;;;;8.60;2.77;;;12.30;99.90;;;;;;5025766;28;20422;-65
2023/03/26 06:56:08;;;;;;;11.70;3.50;;;12.30;99.90;;;;;;5035285;28;20526;-65
2023/03/26 06:58:34;;;;;;;8.63;3.20;;;12.30;99.90;;;;;;5028732;28;20184;-65
2023/03/26 07:00:59;;;;;;;9.40;3.03;;;12.30;99.90;;;;;;5031626;28;20442;-65
2023/03/26 07:03:25;;;;;;;10.00;4.40;;;12.20;99.90;;;;;;5026598;28;20220;-65
2023/03/26 07:05:51;;;;;;;11.70;4.77;;;12.20;99.90;;;;;;5030716;28;20271;-65
2023/03/26 07:08:16;;;;;;;9.00;3.60;;;12.20;99.90;;;;;;5028833;28;20204;-65
2023/03/26 07:10:42;;;;;;;9.30;3.93;;;12.20;99.90;;;;;;5030959;28;20405;-65
2023/03/26 07:13:08;;;;;;;5.23;2.70;;;12.20;99.90;;;;;;5026308;28;20286;-65
2023/03/26 07:15:33;;;;;;;7.37;3.53;;;12.10;99.90;;;;;;5026021;28;20187;-65
2023/03/26 07:17:59;;;;;;;7.87;3.03;;;12.10;99.90;;;;;;5032079;28;20253;-64
2023/03/26 07:20:24;;;;;;;7.50;2.83;;;12.10;99.90;;;;;;5024534;28;20246;-65
2023/03/26 07:22:51;;;;;;;3.90;3.20;;;12.10;99.90;;;;;;5029468;28;20548;-65
2023/03/26 07:25:17;;;;;;;6.63;3.23;;;12.00;99.90;;;;;;5029363;28;20242;-64
2023/03/26 07:27:58;;;;;;;7.90;2.93;;;12.00;99.90;;;;;;5027227;28;20544;-65
2023/03/26 07:30:49;;;;;;;10.27;3.40;;;11.90;99.90;;;;;;5029350;28;20468;-65
2023/03/26 07:33:46;;;;;;;5.80;3.47;;;11.90;99.90;;;;;;5025652;28;20786;-66
2023/03/26 07:36:37;;;;;;;13.67;5.53;;;11.90;99.90;;;;;;5038851;28;20453;-65
2023/03/26 07:39:17;;;;;;;9.90;3.60;;;11.80;99.90;;;;;;5027753;28;20442;-64
2023/03/26 07:41:59;;;;;;;11.33;3.50;;;11.80;99.90;;;;;;5027269;28;20442;-64
2023/03/26 07:44:34;;;;;;;8.77;2.80;;;11.90;99.90;;;;;;5030806;28;21041;-64
2023/03/26 07:47:07;;;;;;;9.33;3.13;;;12.00;99.90;;;;;;5025387;28;20446;-64
2023/03/26 07:49:34;;;;;;;8.57;3.70;;;12.00;99.90;;;;;;5028072;28;20476;-66
2023/03/26 07:52:00;;;;;;;10.00;3.60;;;12.10;99.90;;;;;;5028891;28;20444;-64
2023/03/26 07:54:26;;;;;;;7.03;3.03;;;12.10;99.90;;;;;;5029104;28;20457;-64
2023/03/26 07:56:56;;;;;;;9.00;3.07;;;12.10;99.90;;;;;;5026799;28;21292;-65
2023/03/26 07:59:34;;;;;;;4.93;2.90;;;12.20;99.90;;;;;;5021770;28;20236;-65
2023/03/26 08:02:28;;;;;;;9.17;3.10;;;12.20;99.90;;;;;;5027939;28;20529;-66
2023/03/26 08:04:53;;;;;;;6.43;2.87;;;12.20;99.90;;;;;;5031467;28;20407;-66
2023/03/26 08:07:27;;;;;;;4.80;2.67;;;12.20;99.90;;;;;;5030426;28;21132;-66
2023/03/26 08:10:36;;;;;;;8.80;2.50;;;12.20;99.90;;;;;;5034210;28;20214;-66
2023/03/26 08:13:19;;;;;;;7.90;3.20;;;12.20;99.90;;;;;;5030321;28;20431;-65
2023/03/26 08:16:10;;;;;;;4.80;2.53;;;12.20;99.90;;;;;;5027498;28;20415;-66
2023/03/26 08:18:43;;;;;;;5.60;2.97;;;12.10;99.90;;;;;;5024927;28;20434;-66
2023/03/26 08:21:21;;;;;;;7.57;2.97;;;12.10;99.90;;;;;;5026254;28;20432;-66
2023/03/26 08:23:48;;;;;;;6.30;2.97;;;12.10;99.90;;;;;;5025918;28;20443;-66
2023/03/26 08:26:44;;;;;;;7.20;2.70;;;12.10;99.90;;;;;;5029997;28;20521;-66
2023/03/26 08:29:21;;;;;;;8.20;5.93;;;12.00;99.90;;;;;;5026244;28;20437;-66
2023/03/26 08:31:49;;;;;;;9.87;4.93;;;12.10;99.90;;;;;;5026628;28;20465;-65
2023/03/26 08:34:15;;;;;;;8.83;4.90;;;12.10;99.90;;;;;;5027926;28;20434;-66
2023/03/26 08:36:41;;;;;;;14.27;9.27;;;12.10;99.90;;;;;;5028439;28;20484;-66
2023/03/26 08:39:07;;;;;;;8.63;3.63;;;12.00;99.90;;;;;;5030378;28;20182;-66
2023/03/26 08:42:00;;;;;;;7.30;3.50;;;12.10;99.90;;;;;;5029866;28;20521;-66
2023/03/26 08:44:53;;;;;;;7.83;5.37;;;12.10;99.90;;;;;;5032514;28;20611;-66
2023/03/26 08:47:29;;;;;;;11.83;5.00;;;12.10;99.90;;;;;;5032843;28;21229;-65
2023/03/26 08:50:15;;;;;;;6.20;2.77;;;12.10;99.90;;;;;;5030245;28;20462;-66
2023/03/26 08:53:26;;;;;;;8.70;3.07;;;12.00;99.90;;;;;;5032156;28;20932;-65
2023/03/26 08:56:23;;;;;;;14.17;5.33;;;11.80;99.90;;;;;;5036100;28;21063;-66
2023/03/26 08:58:52;;;;;;;8.07;3.20;;;12.00;99.90;;;;;;5031592;28;20910;-66
2023/03/26 09:01:51;;;;;;;8.80;3.17;;;12.20;99.90;;;;;;5034050;28;20830;-65
2023/03/26 09:04:38;;;;;;;7.90;2.97;;;12.20;99.90;;;;;;5031002;28;20521;-65
2023/03/26 09:07:25;;;;;;;5.17;2.57;;;12.30;99.90;;;;;;5029082;28;20461;-65
2023/03/26 09:10:18;;;;;;;6.67;2.90;;;12.50;99.90;;;;;;5031414;28;21047;-65
2023/03/26 09:13:02;;;;;;;4.30;2.73;;;12.60;99.90;;;;;;5033208;28;20787;-65
2023/03/26 09:15:48;;;;;;;5.13;2.67;;;12.60;99.90;;;;;;5033483;28;20935;-64
2023/03/26 09:18:35;;;;;;;8.93;3.20;;;12.70;99.90;;;;;;5029771;28;20446;-65
2023/03/26 09:21:39;;;;;;;4.60;2.50;;;12.70;99.90;;;;;;5034664;28;20514;-65
2023/03/26 09:24:55;;;;;;;6.00;2.60;;;12.70;99.90;;;;;;5032172;28;20438;-65
2023/03/26 09:27:55;;;;;;;5.00;3.30;;;12.80;99.90;;;;;;5036757;28;20538;-65
2023/03/26 09:30:58;;;;;;;4.77;2.80;;;13.00;99.90;;;;;;5034057;28;20469;-65
2023/03/26 09:33:52;;;;;;;5.60;2.90;;;13.20;99.90;;;;;;5028166;28;20836;-65
2023/03/26 09:36:51;;;;;;;8.73;2.67;;;13.40;99.90;;;;;;5037711;28;20496;-65
2023/03/26 09:39:58;;;;;;;4.67;2.83;;;13.50;99.90;;;;;;5037681;28;20445;-65
2023/03/26 09:42:43;;;;;;;6.90;3.67;;;13.90;99.90;;;;;;5033148;28;20543;-65
2023/03/26 09:45:37;;;;;;;5.60;3.30;;;14.00;99.90;;;;;;5029411;28;20443;-66
2023/03/26 09:48:22;;;;;;;9.33;3.30;;;14.00;99.90;;;;;;5030157;28;20524;-65
2023/03/26 09:51:32;;;;;;;6.70;3.00;;;13.90;99.90;;;;;;5031832;28;20530;-65
2023/03/26 09:54:04;;;;;;;7.63;2.90;;;13.90;99.90;;;;;;5029099;28;20426;-65
2023/03/26 09:56:48;;;;;;;8.40;3.37;;;13.70;99.90;;;;;;5030659;28;20434;-65
2023/03/26 09:59:32;;;;;;;4.70;2.73;;;13.50;99.90;;;;;;5028805;28;20441;-64
2023/03/26 10:02:32;;;;;;;7.53;3.03;;;13.50;99.90;;;;;;5029884;28;20483;-65
2023/03/26 10:05:37;;;;;;;5.80;2.70;;;13.80;99.90;;;;;;5029758;28;20528;-65
2023/03/26 10:08:46;;;;;;;4.17;2.17;;;13.70;99.90;;;;;;5031716;28;20496;-65
2023/03/26 10:11:32;;;;;;;5.67;1.93;;;13.50;99.90;;;;;;5034532;28;21042;-65
2023/03/26 10:14:31;;;;;;;2.90;1.70;;;13.30;99.90;;;;;;5031265;28;20419;-65
2023/03/26 10:17:24;;;;;;;6.50;2.13;;;13.10;99.90;;;;;;5029280;28;20466;-65
2023/03/26 10:19:56;;;;;;;4.73;2.30;;;13.00;99.90;;;;;;5032801;28;20808;-66
2023/03/26 10:22:46;;;;;;;4.63;1.93;;;13.10;99.90;;;;;;5033297;28;20429;-66
2023/03/26 10:25:35;;;;;;;3.70;1.70;;;13.20;99.90;;;;;;5031939;28;20431;-65
2023/03/26 10:28:30;;;;;;;2.80;1.77;;;13.20;99.90;;;;;;5031419;28;20444;-65
2023/03/26 10:31:06;;;;;;;2.53;1.70;;;13.30;99.90;;;;;;5032470;28;20531;-65
2023/03/26 10:33:39;;;;;;;3.77;1.80;;;13.40;99.90;;;;;;5026959;28;20438;-65
2023/03/26 10:36:29;;;;;;;3.33;2.17;;;13.30;99.90;;;;;;5027907;28;20411;-66
2023/03/26 10:39:24;;;;;;;3.90;1.90;;;13.30;99.90;;;;;;5030140;28;20967;-66
2023/03/26 10:42:14;;;;;;;3.90;2.00;;;13.30;99.90;;;;;;5029582;28;20419;-66
2023/03/26 10:45:08;;;;;;;3.23;2.10;;;13.30;99.90;;;;;;5027875;28;20974;-66
2023/03/26 10:48:11;;;;;;;6.40;3.30;;;13.40;99.90;;;;;;5031753;28;20454;-65
2023/03/26 10:50:50;;;;;;;3.23;2.00;;;13.50;99.90;;;;;;5029066;28;20465;-65
2023/03/26 10:53:36;;;;;;;2.30;1.93;;;13.50;99.90;;;;;;5030659;28;20439;-66
2023/03/26 10:56:36;;;;;;;3.73;1.87;;;13.60;99.90;;;;;;5032721;28;20437;-66
2023/03/26 10:59:07;;;;;;;4.23;2.60;;;13.60;99.90;;;;;;5029573;28;20447;-66
2023/03/26 11:01:45;;;;;;;3.27;1.93;;;13.60;99.90;;;;;;5028859;28;21143;-66
2023/03/26 11:04:32;;;;;;;2.67;1.70;;;13.60;99.90;;;;;;5030953;28;20516;-65
2023/03/26 11:07:24;;;;;;;5.50;1.63;;;13.60;99.90;;;;;;5030179;28;20470;-66
2023/03/26 11:10:07;;;;;;;2.40;1.90;;;13.60;99.90;;;;;;5030177;28;20479;-64
2023/03/26 11:12:43;;;;;;;3.30;2.00;;;13.70;99.90;;;;;;5028949;28;20957;-66
2023/03/26 11:15:25;;;;;;;2.57;1.60;;;13.90;99.90;;;;;;5025671;28;21022;-66
2023/03/26 11:18:14;;;;;;;2.57;1.60;;;14.00;99.90;;;;;;5025379;28;21504;-66
2023/03/26 11:20:58;;;;;;;2.90;2.00;;;14.10;99.90;;;;;;5026866;28;20515;-64
2023/03/26 11:23:27;;;;;;;4.50;2.30;;;14.10;99.90;;;;;;5024811;28;20480;-64
2023/03/26 11:26:13;;;;;;;3.37;2.00;;;14.10;99.90;;;;;;5033904;28;20422;-64
2023/03/26 11:29:04;;;;;;;4.90;2.00;;;14.10;99.90;;;;;;5029479;28;20437;-64
2023/03/26 11:31:45;;;;;;;5.40;1.80;;;14.20;99.90;;;;;;5031766;28;20847;-64
2023/03/26 11:34:17;;;;;;;3.93;2.00;;;14.20;99.90;;;;;;5026903;28;20469;-66
2023/03/26 11:36:51;;;;;;;4.57;1.97;;;14.20;99.90;;;;;;5028999;28;20453;-64
2023/03/26 11:39:26;;;;;;;4.13;1.80;;;14.30;99.90;;;;;;5039228;28;20521;-64
2023/03/26 11:42:17;;;;;;;3.70;2.10;;;14.40;99.90;;;;;;5025832;28;20943;-65
2023/03/26 11:44:53;;;;;;;11.67;3.10;;;14.60;99.90;;;;;;5024590;28;20438;-65
2023/03/26 11:47:23;;;;;;;4.80;2.27;;;14.70;99.90;;;;;;5025843;28;20456;-64
2023/03/26 11:49:53;;;;;;;3.33;2.10;;;14.80;99.90;;;;;;5029840;28;20512;-65
2023/03/26 11:52:20;;;;;;;3.20;1.80;;;14.80;99.90;;;;;;5027396;28;20502;-65
2023/03/26 11:54:49;;;;;;;5.87;2.43;;;15.00;99.90;;;;;;5023696;28;20816;-64
2023/03/26 11:57:24;;;;;;;4.10;2.00;;;15.30;99.90;;;;;;5025176;28;20799;-64
2023/03/26 12:00:15;;;;;;;6.67;2.23;;;15.30;99.90;;;;;;5029129;28;20430;-65
2023/03/26 12:02:41;;;;;;;4.40;2.13;;;15.40;99.90;;;;;;5030063;28;20433;-65
2023/03/26 12:05:17;;;;;;;6.00;2.43;;;15.60;99.90;;;;;;5021391;28;20978;-64
2023/03/26 12:07:53;;;;;;;4.37;2.33;;;15.70;99.90;;;;;;5020054;28;20984;-63
2023/03/26 12:10:29;;;;;;;3.53;2.27;;;17.00;99.90;;;;;;5030165;28;20465;-63
2023/03/26 12:12:58;;;;;;;3.93;2.03;;;17.00;99.20;;;;;;5022427;28;20447;-62
2023/03/26 12:15:25;;;;;;;3.20;2.30;;;17.30;99.30;;;;;;5028761;28;20462;-63
2023/03/26 12:17:55;;;;;;;3.00;1.90;;;18.10;96.60;;;;;;5025067;28;20823;-63
2023/03/26 12:20:26;;;;;;;3.60;2.10;;;18.70;96.20;;;;;;5028818;28;20461;-63
2023/03/26 12:22:57;;;;;;;2.60;1.77;;;19.40;92.70;;;;;;5025193;28;20443;-63
2023/03/26 12:25:25;;;;;;;8.40;2.47;;;18.80;89.00;;;;;;5026299;28;20414;-63
2023/03/26 12:28:12;;;;;;;4.10;2.27;;;19.30;87.70;;;;;;5027295;28;20447;-63
2023/03/26 12:30:52;;;;;;;3.10;2.17;;;20.20;84.50;;;;;;5032683;28;21026;-64
2023/03/26 12:33:33;;;;;;;3.93;2.13;;;20.20;81.30;;;;;;5028275;28;20870;-62
2023/03/26 12:36:15;;;;;;;3.67;2.27;;;19.60;79.30;;;;;;5026922;28;20414;-63
2023/03/26 12:38:41;;;;;;;4.90;2.43;;;20.30;78.00;;;;;;5032740;28;20462;-63
2023/03/26 12:41:15;;;;;;;3.57;2.27;;;20.00;74.70;;;;;;5028469;28;20427;-63
2023/03/26 12:43:43;;;;;;;4.33;2.37;;;19.80;74.00;;;;;;5028274;28;20429;-63
2023/03/26 12:46:30;;;;;;;4.20;2.50;;;19.10;75.90;;;;;;5026442;28;20431;-64
2023/03/26 12:48:58;;;;;;;4.37;2.23;;;18.80;77.30;;;;;;5025885;28;20429;-64
2023/03/26 12:51:51;;;;;;;3.17;2.50;;;18.70;78.10;;;;;;5027261;28;20466;-64
2023/03/26 12:54:35;;;;;;;3.33;2.00;;;18.60;77.40;;;;;;5025388;28;20951;-64
2023/03/26 12:57:19;;;;;;;8.33;3.00;;;19.10;76.50;;;;;;5021364;28;20477;-64
2023/03/26 13:00:33;;;;;;;4.40;2.37;;;20.10;75.90;;;;;;5015887;28;20443;-64
2023/03/26 13:03:36;;;;;;;3.77;2.40;;;20.20;73.80;;;;;;5018170;28;20474;-65
2023/03/26 13:06:26;;;;;;;5.27;2.47;;;20.50;72.50;;;;;;5022030;28;20693;-64
2023/03/26 13:09:14;;;;;;;5.57;2.10;;;20.20;72.90;;;;;;5024838;28;20435;-65
2023/03/26 13:11:55;;;;;;;4.53;2.70;;;20.60;71.70;;;;;;5022873;28;20443;-64
2023/03/26 13:14:51;;;;;;;4.03;2.57;;;20.30;70.10;;;;;;5024668;28;20430;-64
2023/03/26 13:17:29;;;;;;;4.13;2.30;;;20.60;71.60;;;;;;5025324;28;20541;-64
2023/03/26 13:20:12;;;;;;;4.10;2.00;;;20.70;69.50;;;;;;5025164;28;20446;-63
2023/03/26 13:22:51;;;;;;;3.20;2.07;;;20.50;67.70;;;;;;5027857;28;20553;-64